createdAt,value
2022-12-12T00:01:04.803Z,5.47
2022-12-12T00:03:33.033Z,5.50
2022-12-12T00:06:03.438Z,5.52
2022-12-12T00:08:31.624Z,5.57
2022-12-12T00:10:59.940Z,5.48
2022-12-12T00:13:27.945Z,5.60
2022-12-12T00:15:55.998Z,5.69
2022-12-12T00:18:25.396Z,5.70
2022-12-12T00:20:53.805Z,5.62
2022-12-12T00:23:21.841Z,5.62
2022-12-12T00:25:56.615Z,5.56
2022-12-12T00:28:24.815Z,5.59
2022-12-12T00:30:52.947Z,5.55
2022-12-12T00:33:21.389Z,5.49
2022-12-12T00:35:52.771Z,5.49
2022-12-12T00:38:22.546Z,5.60
2022-12-12T00:40:51.289Z,5.60
2022-12-12T00:43:19.320Z,5.59
2022-12-12T00:45:47.360Z,5.53
2022-12-12T00:48:15.403Z,5.61
2022-12-12T00:50:43.464Z,5.61
2022-12-12T00:53:13.799Z,5.65
2022-12-12T00:55:41.905Z,5.61
2022-12-12T00:58:09.985Z,5.27
2022-12-12T01:00:40.524Z,5.20
2022-12-12T01:03:08.765Z,5.40
2022-12-12T01:05:37.051Z,5.51
2022-12-12T01:08:05.264Z,5.54
2022-12-12T01:10:34.801Z,5.48
2022-12-12T01:13:02.896Z,5.50
2022-12-12T01:15:31.005Z,5.56
2022-12-12T01:17:59.109Z,5.51
2022-12-12T01:20:29.214Z,5.62
2022-12-12T01:22:57.516Z,5.62
2022-12-12T01:25:25.593Z,5.60
2022-12-12T01:27:55.159Z,5.52
2022-12-12T01:30:24.080Z,5.53
2022-12-12T01:32:52.429Z,5.49
2022-12-12T01:35:20.605Z,5.38
2022-12-12T01:37:49.266Z,5.37
2022-12-12T01:40:20.681Z,5.32
2022-12-12T01:42:49.552Z,5.25
2022-12-12T01:45:54.485Z,5.32
2022-12-12T01:48:25.264Z,5.35
2022-12-12T01:50:53.863Z,5.28
2022-12-12T01:53:23.093Z,5.16
2022-12-12T01:55:51.722Z,5.02
2022-12-12T01:58:19.766Z,5.07
2022-12-12T02:00:47.891Z,5.12
2022-12-12T02:03:15.939Z,5.06
2022-12-12T02:05:50.209Z,5.03
2022-12-12T02:08:20.780Z,4.97
2022-12-12T02:10:49.356Z,5.10
2022-12-12T02:13:21.542Z,5.08
2022-12-12T02:16:01.111Z,5.08
2022-12-12T02:18:36.587Z,5.20
2022-12-12T02:21:16.553Z,5.13
2022-12-12T02:24:25.972Z,4.84
2022-12-12T02:27:17.238Z,4.89
2022-12-12T02:30:09.058Z,4.73
2022-12-12T02:33:07.046Z,4.82
2022-12-12T02:35:44.737Z,4.88
2022-12-12T02:38:22.872Z,4.88
2022-12-12T02:41:01.649Z,4.73
2022-12-12T02:43:37.387Z,4.88
2022-12-12T02:46:09.720Z,4.66
2022-12-12T02:48:44.377Z,4.64
2022-12-12T02:51:15.209Z,4.68
2022-12-12T02:53:43.281Z,4.73
2022-12-12T02:56:41.063Z,4.64
2022-12-12T02:59:09.428Z,4.67
2022-12-12T03:01:50.421Z,4.65
2022-12-12T03:05:00.327Z,4.60
2022-12-12T03:07:50.864Z,4.49
2022-12-12T03:10:42.801Z,4.41
2022-12-12T03:13:15.194Z,4.52
2022-12-12T03:15:51.671Z,4.49
2022-12-12T03:18:26.657Z,4.52
2022-12-12T03:21:04.306Z,4.50
2022-12-12T03:23:39.042Z,4.35
2022-12-12T03:26:13.142Z,4.51
2022-12-12T03:28:48.941Z,4.52
2022-12-12T03:31:20.886Z,4.58
2022-12-12T03:33:54.365Z,4.50
2022-12-12T03:36:28.381Z,4.52
2022-12-12T03:39:00.773Z,4.51
2022-12-12T03:41:32.851Z,4.53
2022-12-12T03:44:05.767Z,4.49
2022-12-12T03:46:40.156Z,4.42
2022-12-12T03:49:14.627Z,4.46
2022-12-12T03:51:49.476Z,4.51
2022-12-12T03:54:23.033Z,4.51
2022-12-12T03:56:57.115Z,4.39
2022-12-12T03:59:30.378Z,4.48
2022-12-12T04:02:03.188Z,4.54
2022-12-12T04:04:40.015Z,4.60
2022-12-12T04:07:16.954Z,4.32
2022-12-12T04:10:02.501Z,4.32
2022-12-12T04:12:53.843Z,4.32
2022-12-12T04:15:36.290Z,4.28
2022-12-12T04:18:15.133Z,4.48
2022-12-12T04:21:08.633Z,4.61
2022-12-12T04:23:48.795Z,4.54
2022-12-12T04:26:40.317Z,4.42
2022-12-12T04:29:17.861Z,4.43
2022-12-12T04:31:53.028Z,4.54
2022-12-12T04:34:27.484Z,4.62
2022-12-12T04:36:55.899Z,4.64
2022-12-12T04:39:27.163Z,4.49
2022-12-12T04:41:56.254Z,4.49
2022-12-12T04:44:25.897Z,4.56
2022-12-12T04:46:57.716Z,4.64
2022-12-12T04:49:28.865Z,4.49
2022-12-12T04:52:00.386Z,4.42
2022-12-12T04:54:37.898Z,4.51
2022-12-12T04:57:09.353Z,4.54
2022-12-12T04:59:38.057Z,4.62
2022-12-12T05:02:15.606Z,4.61
2022-12-12T05:04:50.839Z,4.71
2022-12-12T05:07:25.704Z,4.65
2022-12-12T05:09:55.597Z,4.64
2022-12-12T05:12:23.906Z,4.66
2022-12-12T05:14:52.094Z,4.60
2022-12-12T05:17:28.398Z,4.63
2022-12-12T05:19:57.805Z,4.75
2022-12-12T05:22:25.825Z,4.71
2022-12-12T05:24:55.400Z,4.75
2022-12-12T05:27:23.474Z,4.75
2022-12-12T05:29:51.505Z,4.79
2022-12-12T05:32:19.572Z,4.71
2022-12-12T05:34:47.568Z,4.75
2022-12-12T05:37:15.659Z,4.80
2022-12-12T05:39:43.616Z,4.88
2022-12-12T05:42:13.025Z,4.91
2022-12-12T05:44:41.138Z,4.93
2022-12-12T05:47:09.298Z,4.84
2022-12-12T05:49:37.321Z,4.89
2022-12-12T05:52:05.615Z,4.82
2022-12-12T05:54:33.809Z,4.77
2022-12-12T05:57:01.848Z,4.71
2022-12-12T05:59:31.321Z,4.78
2022-12-12T06:01:59.418Z,4.83
2022-12-12T06:04:27.692Z,4.83
2022-12-12T06:06:55.806Z,4.87
2022-12-12T06:09:23.802Z,4.88
2022-12-12T06:11:51.853Z,4.83
2022-12-12T06:14:19.842Z,4.68
2022-12-12T06:16:49.331Z,4.64
2022-12-12T06:19:19.133Z,4.73
2022-12-12T06:21:47.251Z,4.73
2022-12-12T06:24:15.588Z,4.72
2022-12-12T06:26:43.605Z,4.81
2022-12-12T06:29:11.708Z,4.84
2022-12-12T06:31:39.802Z,4.80
2022-12-12T06:34:09.320Z,4.61
2022-12-12T06:36:38.049Z,4.51
2022-12-12T06:39:06.284Z,4.49
2022-12-12T06:41:34.889Z,4.57
2022-12-12T06:44:03.178Z,4.57
2022-12-12T06:46:31.798Z,4.65
2022-12-12T06:49:00.306Z,4.62
2022-12-12T06:51:33.385Z,4.51
2022-12-12T06:54:01.408Z,4.71
2022-12-12T06:56:30.864Z,4.71
2022-12-12T06:59:01.053Z,4.77
2022-12-12T07:01:29.230Z,4.71
2022-12-12T07:03:58.093Z,4.68
2022-12-12T07:06:26.413Z,4.73
2022-12-12T07:08:56.287Z,4.72
2022-12-12T07:11:26.955Z,4.68
2022-12-12T07:13:57.060Z,4.71
2022-12-12T07:16:25.278Z,4.72
2022-12-12T07:18:53.329Z,4.72
2022-12-12T07:21:22.156Z,4.74
2022-12-12T07:23:50.355Z,4.73
2022-12-12T07:26:21.776Z,4.76
2022-12-12T07:28:51.548Z,4.73
2022-12-12T07:31:22.579Z,4.71
2022-12-12T07:33:50.669Z,4.69
2022-12-12T07:36:19.052Z,4.71
2022-12-12T07:38:47.086Z,4.69
2022-12-12T07:41:17.086Z,4.74
2022-12-12T07:43:51.065Z,4.73
2022-12-12T07:46:21.192Z,4.72
2022-12-12T07:48:49.417Z,4.72
2022-12-12T07:51:17.986Z,4.68
2022-12-12T07:53:46.722Z,4.66
2022-12-12T07:56:16.677Z,4.66
2022-12-12T07:58:45.194Z,4.68
2022-12-12T08:01:17.377Z,4.72
2022-12-12T08:03:46.313Z,4.75
2022-12-12T08:06:16.270Z,4.76
2022-12-12T08:08:44.645Z,4.80
2022-12-12T08:11:15.917Z,4.83
2022-12-12T08:13:44.172Z,4.86
2022-12-12T08:16:17.096Z,4.91
2022-12-12T08:18:45.785Z,5.02
2022-12-12T08:21:18.797Z,5.07
2022-12-12T08:23:53.080Z,5.04
2022-12-12T08:26:21.169Z,5.10
2022-12-12T08:28:50.024Z,5.02
2022-12-12T08:31:21.501Z,4.87
2022-12-12T08:33:51.307Z,4.89
2022-12-12T08:36:22.029Z,4.91
2022-12-12T08:38:50.841Z,4.91
2022-12-12T08:41:19.924Z,4.97
2022-12-12T08:43:48.057Z,5.04
2022-12-12T08:46:18.583Z,5.10
2022-12-12T08:48:49.215Z,5.18
2022-12-12T08:51:18.398Z,5.27
2022-12-12T08:53:46.850Z,5.38
2022-12-12T08:56:15.198Z,5.45
2022-12-12T08:58:43.351Z,5.51
2022-12-12T09:01:12.609Z,5.49
2022-12-12T09:03:40.908Z,5.40
2022-12-12T09:06:11.512Z,5.32
2022-12-12T09:08:40.101Z,5.39
2022-12-12T09:11:08.576Z,5.45
2022-12-12T09:13:36.960Z,5.35
2022-12-12T09:16:05.549Z,5.45
2022-12-12T09:18:33.835Z,5.47
2022-12-12T09:21:02.029Z,5.59
2022-12-12T09:23:31.568Z,5.64
2022-12-12T09:26:00.148Z,5.61
2022-12-12T09:28:28.344Z,5.68
2022-12-12T09:30:56.395Z,5.77
2022-12-12T09:33:24.414Z,5.91
2022-12-12T09:35:59.673Z,5.83
2022-12-12T09:38:28.825Z,5.79
2022-12-12T09:41:02.599Z,5.85
2022-12-12T09:43:34.822Z,6.00
2022-12-12T09:46:04.614Z,6.07
2022-12-12T09:48:42.055Z,6.13
2022-12-12T09:51:11.380Z,6.14
2022-12-12T09:53:40.710Z,6.06
2022-12-12T09:56:14.599Z,6.14
2022-12-12T09:58:53.946Z,6.20
2022-12-12T10:01:29.905Z,6.21
2022-12-12T10:04:06.696Z,6.25
2022-12-12T10:06:41.429Z,6.31
2022-12-12T10:09:33.527Z,6.17
2022-12-12T10:12:08.397Z,6.14
2022-12-12T10:14:40.000Z,6.25
2022-12-12T10:17:15.069Z,6.33
2022-12-12T10:19:49.513Z,6.28
2022-12-12T10:22:37.010Z,6.31
2022-12-12T10:25:17.959Z,6.44
2022-12-12T10:27:47.844Z,6.57
2022-12-12T10:30:18.981Z,6.71
2022-12-12T10:33:05.714Z,6.82
2022-12-12T10:35:42.990Z,6.93
2022-12-12T10:38:25.621Z,6.89
2022-12-12T10:40:59.989Z,6.79
2022-12-12T10:43:35.722Z,6.57
2022-12-12T10:46:23.913Z,6.54
2022-12-12T10:48:53.149Z,6.60
2022-12-12T10:51:24.052Z,6.73
2022-12-12T10:53:52.240Z,6.83
2022-12-12T10:56:27.710Z,6.94
2022-12-12T10:59:02.904Z,6.96
2022-12-12T11:04:35.553Z,6.78
2022-12-12T11:07:17.854Z,6.70
2022-12-12T11:09:50.430Z,6.83
2022-12-12T11:12:34.271Z,6.89
2022-12-12T11:15:16.979Z,6.93
2022-12-12T11:17:47.153Z,6.82
2022-12-12T11:20:19.478Z,6.76
2022-12-12T11:22:53.080Z,6.80
2022-12-12T11:25:29.347Z,6.75
2022-12-12T11:28:06.423Z,6.93
2022-12-12T11:30:45.545Z,7.03
2022-12-12T11:33:25.818Z,7.09
2022-12-12T11:35:58.430Z,7.18
2022-12-12T11:38:34.762Z,7.27
2022-12-12T11:41:10.206Z,7.37
2022-12-12T11:43:54.228Z,7.38
2022-12-12T11:46:33.480Z,7.42
2022-12-12T11:49:07.631Z,7.43
2022-12-12T11:51:43.660Z,7.41
2022-12-12T11:54:27.571Z,7.45
2022-12-12T11:57:07.213Z,7.42
2022-12-12T11:59:57.605Z,7.32
2022-12-12T12:02:58.198Z,7.29
2022-12-12T12:05:37.316Z,7.38
2022-12-12T12:08:15.143Z,7.40
2022-12-12T12:10:56.977Z,7.43
2022-12-12T12:13:42.570Z,7.52
2022-12-12T12:16:20.885Z,7.44
2022-12-12T12:19:02.360Z,7.52
2022-12-12T12:21:43.017Z,7.48
2022-12-12T12:24:41.772Z,7.55
2022-12-12T12:27:18.246Z,7.61
2022-12-12T12:30:16.715Z,7.62
2022-12-12T12:33:11.891Z,7.55
2022-12-12T12:35:51.869Z,7.47
2022-12-12T12:38:27.991Z,7.41
2022-12-12T12:41:15.973Z,7.35
2022-12-12T12:44:01.372Z,7.49
2022-12-12T12:46:39.786Z,7.39
2022-12-12T12:49:13.848Z,7.41
2022-12-12T12:51:50.421Z,7.40
2022-12-12T12:54:25.085Z,7.57
2022-12-12T12:57:00.000Z,7.65
2022-12-12T12:59:34.244Z,7.68
2022-12-12T13:02:06.852Z,7.70
2022-12-12T13:04:42.317Z,7.68
2022-12-12T13:07:17.440Z,7.52
2022-12-12T13:09:55.386Z,7.40
2022-12-12T13:12:30.649Z,7.47
2022-12-12T13:15:03.151Z,7.55
2022-12-12T13:17:43.290Z,7.30
2022-12-12T13:20:16.855Z,7.22
2022-12-12T13:22:55.079Z,7.27
2022-12-12T13:25:34.515Z,7.28
2022-12-12T13:28:08.085Z,7.08
2022-12-12T13:30:48.828Z,7.04
2022-12-12T13:33:36.008Z,7.07
2022-12-12T13:36:11.240Z,7.15
2022-12-12T13:38:40.189Z,7.20
2022-12-12T13:41:11.396Z,7.22
2022-12-12T13:43:48.295Z,7.14
2022-12-12T13:46:35.057Z,7.03
2022-12-12T13:49:27.021Z,6.89
2022-12-12T13:52:24.191Z,6.87
2022-12-12T13:54:55.641Z,6.85
2022-12-12T13:57:27.270Z,6.83
2022-12-12T14:00:15.797Z,6.81
2022-12-12T14:02:47.040Z,6.84
2022-12-12T14:05:22.552Z,6.87
2022-12-12T14:07:54.233Z,6.87
2022-12-12T14:10:27.965Z,6.82
2022-12-12T14:12:57.326Z,6.73
2022-12-12T14:15:31.353Z,6.68
2022-12-12T14:18:02.790Z,6.74
2022-12-12T14:20:33.630Z,6.76
2022-12-12T14:23:23.788Z,6.71
2022-12-12T14:25:52.261Z,6.69
2022-12-12T14:28:22.610Z,6.53
2022-12-12T14:30:57.362Z,6.55
2022-12-12T14:34:02.788Z,6.48
2022-12-12T14:37:28.015Z,6.40
2022-12-12T14:40:05.341Z,6.42
2022-12-12T14:43:18.965Z,6.40
2022-12-12T14:45:54.127Z,6.42
2022-12-12T14:48:24.712Z,6.45
2022-12-12T14:50:57.434Z,6.49
2022-12-12T14:53:28.615Z,6.50
2022-12-12T14:56:01.353Z,6.52
2022-12-12T14:58:32.202Z,6.50
2022-12-12T15:01:02.868Z,6.40
2022-12-12T15:03:35.708Z,6.38
2022-12-12T15:06:36.428Z,6.36
2022-12-12T15:09:20.088Z,6.41
2022-12-12T15:11:50.215Z,6.45
2022-12-12T15:14:25.614Z,6.43
2022-12-12T15:16:59.692Z,6.44
2022-12-12T15:19:31.105Z,6.54
2022-12-12T15:21:59.877Z,6.48
2022-12-12T15:24:30.525Z,6.44
2022-12-12T15:27:00.838Z,6.28
2022-12-12T15:29:31.273Z,6.26
2022-12-12T15:32:02.950Z,6.30
2022-12-12T15:34:37.249Z,6.33
2022-12-12T15:37:28.271Z,6.34
2022-12-12T15:40:22.665Z,6.33
2022-12-12T15:42:56.469Z,6.28
2022-12-12T15:45:30.353Z,6.09
2022-12-12T15:47:59.296Z,6.19
2022-12-12T15:50:31.216Z,6.23
2022-12-12T15:53:19.506Z,6.25
2022-12-12T15:55:59.521Z,6.29
2022-12-12T15:58:33.365Z,6.28
2022-12-12T16:01:08.358Z,6.29
2022-12-12T16:03:56.966Z,6.30
2022-12-12T16:06:26.660Z,6.28
2022-12-12T16:09:01.640Z,6.27
2022-12-12T16:11:40.758Z,6.25
2022-12-12T16:14:26.445Z,6.23
2022-12-12T16:16:58.737Z,6.21
2022-12-12T16:19:34.792Z,6.19
2022-12-12T16:22:06.015Z,6.14
2022-12-12T16:24:34.241Z,6.11
2022-12-12T16:27:02.895Z,5.94
2022-12-12T16:29:32.466Z,5.91
2022-12-12T16:32:00.550Z,5.89
2022-12-12T16:34:28.586Z,5.84
2022-12-12T16:36:56.713Z,5.75
2022-12-12T16:39:24.770Z,5.67
2022-12-12T16:41:52.909Z,5.59
2022-12-12T16:44:23.759Z,5.51
2022-12-12T16:46:53.327Z,5.41
2022-12-12T16:49:21.933Z,5.31
2022-12-12T16:51:50.057Z,5.20
2022-12-12T16:54:18.872Z,5.16
2022-12-12T16:56:52.438Z,5.11
2022-12-12T16:59:20.487Z,5.05
2022-12-12T17:01:48.611Z,4.96
2022-12-12T17:04:22.390Z,4.88
2022-12-12T17:06:50.902Z,4.79
2022-12-12T17:09:21.408Z,4.72
2022-12-12T17:11:49.732Z,4.64
2022-12-12T17:14:21.593Z,4.60
2022-12-12T17:16:49.941Z,4.51
2022-12-12T17:19:19.436Z,4.46
2022-12-12T17:21:47.783Z,4.37
2022-12-12T17:24:16.594Z,4.30
2022-12-12T17:26:44.963Z,4.24
2022-12-12T17:29:13.002Z,4.19
2022-12-12T17:31:41.366Z,4.14
2022-12-12T17:34:09.610Z,4.08
2022-12-12T17:36:39.255Z,4.06
2022-12-12T17:39:07.465Z,4.01
2022-12-12T17:41:35.573Z,3.97
2022-12-12T17:44:03.720Z,3.94
2022-12-12T17:46:32.486Z,3.91
2022-12-12T17:49:01.978Z,3.88
2022-12-12T17:51:30.235Z,3.88
2022-12-12T17:54:00.529Z,3.84
2022-12-12T17:56:29.065Z,3.82
2022-12-12T17:58:58.045Z,3.77
2022-12-12T18:01:28.125Z,3.74
2022-12-12T18:03:57.704Z,3.70
2022-12-12T18:06:28.189Z,3.63
2022-12-12T18:08:56.851Z,3.60
2022-12-12T18:11:28.039Z,3.58
2022-12-12T18:13:57.920Z,3.52
2022-12-12T18:16:28.111Z,3.47
2022-12-12T18:18:57.597Z,3.42
2022-12-12T18:24:16.044Z,3.34
2022-12-12T18:26:47.657Z,3.31
2022-12-12T18:29:15.783Z,3.29
2022-12-12T18:31:43.992Z,3.24
2022-12-12T18:34:12.108Z,3.20
2022-12-12T18:36:40.610Z,3.17
2022-12-12T18:39:09.072Z,3.13
2022-12-12T18:41:37.788Z,3.12
2022-12-12T18:44:09.080Z,3.08
2022-12-12T18:46:42.648Z,3.05
2022-12-12T18:49:13.830Z,3.01
2022-12-12T18:51:42.542Z,2.99
2022-12-12T18:54:15.456Z,2.96
2022-12-12T18:56:45.307Z,2.90
2022-12-12T18:59:15.628Z,2.89
2022-12-12T19:01:44.023Z,2.89
2022-12-12T19:04:17.529Z,2.84
2022-12-12T19:06:49.269Z,2.83
2022-12-12T19:09:19.994Z,2.83
2022-12-12T19:11:48.425Z,2.81
2022-12-12T19:14:18.267Z,2.79
2022-12-12T19:16:46.909Z,2.79
2022-12-12T19:19:15.626Z,2.74
2022-12-12T19:21:44.305Z,2.71
2022-12-12T19:24:13.767Z,2.72
2022-12-12T19:26:43.828Z,2.71
2022-12-12T19:29:13.895Z,2.69
2022-12-12T19:31:43.380Z,2.66
2022-12-12T19:34:13.491Z,2.65
2022-12-12T19:36:41.896Z,2.65
2022-12-12T19:39:10.294Z,2.62
2022-12-12T19:41:38.563Z,2.60
2022-12-12T19:44:08.944Z,2.57
2022-12-12T19:46:37.170Z,2.52
2022-12-12T19:49:08.618Z,2.50
2022-12-12T19:51:39.352Z,2.46
2022-12-12T19:54:08.989Z,2.45
2022-12-12T19:56:40.633Z,2.39
2022-12-12T19:59:09.817Z,2.36
2022-12-12T20:01:38.941Z,2.35
2022-12-12T20:04:09.985Z,2.34
2022-12-12T20:06:45.262Z,2.27
2022-12-12T20:09:16.092Z,2.26
2022-12-12T20:11:45.370Z,2.26
2022-12-12T20:14:15.401Z,2.26
2022-12-12T20:16:43.864Z,2.23
2022-12-12T20:19:14.820Z,2.23
2022-12-12T20:22:02.218Z,2.22
2022-12-12T20:24:31.157Z,2.21
2022-12-12T20:27:00.219Z,2.23
2022-12-12T20:29:28.801Z,2.28
2022-12-12T20:31:57.042Z,2.35
2022-12-12T20:34:26.482Z,2.40
2022-12-12T20:36:55.760Z,2.46
2022-12-12T20:39:25.841Z,2.53
2022-12-12T20:41:54.768Z,2.59
2022-12-12T20:44:24.264Z,2.62
2022-12-12T20:46:53.209Z,2.66
2022-12-12T20:49:24.076Z,2.70
2022-12-12T20:51:55.912Z,2.71
2022-12-12T20:54:25.178Z,2.72
2022-12-12T20:56:53.715Z,2.69
2022-12-12T20:59:21.719Z,2.71
2022-12-12T21:01:49.856Z,2.70
2022-12-12T21:04:18.126Z,2.72
2022-12-12T21:06:49.763Z,2.70
2022-12-12T21:09:25.041Z,2.68
2022-12-12T21:11:55.148Z,2.59
2022-12-12T21:14:23.786Z,2.55
2022-12-12T21:16:52.677Z,2.51
2022-12-12T21:19:22.050Z,2.51
2022-12-12T21:21:50.493Z,2.49
2022-12-12T21:24:20.781Z,2.45
2022-12-12T21:26:49.640Z,2.41
2022-12-12T21:29:17.738Z,2.37
2022-12-12T21:31:50.900Z,2.32
2022-12-12T21:34:22.093Z,2.30
2022-12-12T21:36:52.735Z,2.27
2022-12-12T21:39:23.281Z,2.23
2022-12-12T21:41:51.743Z,2.27
2022-12-12T21:44:20.209Z,2.28
2022-12-12T21:46:48.814Z,2.27
2022-12-12T21:49:30.814Z,2.20
2022-12-12T21:52:03.018Z,2.38
2022-12-12T21:54:33.844Z,2.45
2022-12-12T21:57:02.734Z,2.51
2022-12-12T21:59:31.482Z,2.53
2022-12-12T22:02:01.493Z,2.53
2022-12-12T22:04:29.919Z,2.45
2022-12-12T22:06:58.455Z,2.47
2022-12-12T22:09:27.281Z,2.51
2022-12-12T22:12:03.470Z,2.49
2022-12-12T22:14:33.804Z,2.51
2022-12-12T22:17:01.948Z,2.53
2022-12-12T22:19:30.197Z,2.53
2022-12-12T22:21:58.329Z,2.52
2022-12-12T22:24:26.451Z,2.56
2022-12-12T22:26:55.951Z,2.58
2022-12-12T22:29:23.985Z,2.54
2022-12-12T22:31:52.398Z,2.51
2022-12-12T22:34:23.403Z,2.45
2022-12-12T22:36:52.149Z,2.44
2022-12-12T22:39:21.975Z,2.44
2022-12-12T22:41:50.621Z,2.50
2022-12-12T22:44:22.233Z,2.47
2022-12-12T22:46:51.923Z,2.51
2022-12-12T22:49:22.458Z,2.40
2022-12-12T22:51:51.374Z,2.53
2022-12-12T22:54:19.937Z,2.53
2022-12-12T22:56:47.976Z,2.54
2022-12-12T22:59:16.083Z,2.66
2022-12-12T23:01:45.590Z,2.60
2022-12-12T23:04:14.470Z,2.60
2022-12-12T23:06:43.532Z,2.58
2022-12-12T23:09:15.336Z,2.62
2022-12-12T23:11:44.100Z,2.57
2022-12-12T23:14:15.721Z,2.55
2022-12-12T23:16:45.583Z,2.65
2022-12-12T23:19:15.481Z,2.62
2022-12-12T23:21:43.621Z,2.68
2022-12-12T23:24:12.510Z,2.61
2022-12-12T23:26:40.774Z,2.58
2022-12-12T23:29:10.783Z,2.56
2022-12-12T23:31:39.659Z,2.55
2022-12-12T23:34:14.480Z,2.54
2022-12-12T23:36:44.814Z,2.59
2022-12-12T23:39:14.118Z,2.57
2022-12-12T23:41:42.720Z,2.62
2022-12-12T23:44:13.239Z,2.61
2022-12-12T23:46:41.793Z,2.60
2022-12-12T23:49:16.125Z,2.58
2022-12-12T23:51:45.807Z,2.58
2022-12-12T23:54:16.005Z,2.52
2022-12-12T23:56:44.716Z,2.47
2022-12-12T23:59:17.384Z,2.42
